sensor_id;sensor_type;location;lat;lon;timestamp;P1;durP1;ratioP1;P2;durP2;ratioP2
81656;SDS011;71067;51.482;-0.580;2023-07-24T00:00:01;9.55;;;2.65;;
81656;SDS011;71067;51.482;-0.580;2023-07-24T00:02:26;5.32;;;2.42;;
81656;SDS011;71067;51.482;-0.580;2023-07-24T00:04:51;4.43;;;2.20;;
81656;SDS011;71067;51.482;-0.580;2023-07-24T00:07:17;3.60;;;1.95;;
81656;SDS011;71067;51.482;-0.580;2023-07-24T00:09:43;7.28;;;2.30;;
81656;SDS011;71067;51.482;-0.580;2023-07-24T00:12:08;5.45;;;2.85;;
81656;SDS011;71067;51.482;-0.580;2023-07-24T00:14:34;5.57;;;2.57;;
81656;SDS011;71067;51.482;-0.580;2023-07-24T00:16:59;6.72;;;2.47;;
81656;SDS011;71067;51.482;-0.580;2023-07-24T00:19:24;8.63;;;2.70;;
81656;SDS011;71067;51.482;-0.580;2023-07-24T00:21:50;6.83;;;2.40;;
81656;SDS011;71067;51.482;-0.580;2023-07-24T00:24:15;5.37;;;2.30;;
81656;SDS011;71067;51.482;-0.580;2023-07-24T00:26:40;6.80;;;2.37;;
81656;SDS011;71067;51.482;-0.580;2023-07-24T00:29:05;6.33;;;2.60;;
81656;SDS011;71067;51.482;-0.580;2023-07-24T00:31:31;7.43;;;3.33;;
81656;SDS011;71067;51.482;-0.580;2023-07-24T00:33:56;6.73;;;2.70;;
81656;SDS011;71067;51.482;-0.580;2023-07-24T00:36:24;7.32;;;2.75;;
81656;SDS011;71067;51.482;-0.580;2023-07-24T00:38:50;7.03;;;2.37;;
81656;SDS011;71067;51.482;-0.580;2023-07-24T00:41:15;8.47;;;2.60;;
81656;SDS011;71067;51.482;-0.580;2023-07-24T00:43:40;4.57;;;2.38;;
81656;SDS011;71067;51.482;-0.580;2023-07-24T00:46:06;7.35;;;2.72;;
81656;SDS011;71067;51.482;-0.580;2023-07-24T00:48:31;5.18;;;2.40;;
81656;SDS011;71067;51.482;-0.580;2023-07-24T00:50:56;7.13;;;2.22;;
81656;SDS011;71067;51.482;-0.580;2023-07-24T00:53:22;5.32;;;2.50;;
81656;SDS011;71067;51.482;-0.580;2023-07-24T00:55:47;6.65;;;3.10;;
81656;SDS011;71067;51.482;-0.580;2023-07-24T00:58:13;8.32;;;2.95;;
81656;SDS011;71067;51.482;-0.580;2023-07-24T01:00:41;8.00;;;2.80;;
81656;SDS011;71067;51.482;-0.580;2023-07-24T01:03:06;8.63;;;2.92;;
81656;SDS011;71067;51.482;-0.580;2023-07-24T01:05:32;6.75;;;2.40;;
81656;SDS011;71067;51.482;-0.580;2023-07-24T01:07:57;6.83;;;2.57;;
81656;SDS011;71067;51.482;-0.580;2023-07-24T01:10:22;5.33;;;2.60;;
81656;SDS011;71067;51.482;-0.580;2023-07-24T01:12:51;8.65;;;2.50;;
81656;SDS011;71067;51.482;-0.580;2023-07-24T01:15:19;7.28;;;2.30;;
81656;SDS011;71067;51.482;-0.580;2023-07-24T01:17:55;8.75;;;2.80;;
81656;SDS011;71067;51.482;-0.580;2023-07-24T01:20:26;5.82;;;2.50;;
81656;SDS011;71067;51.482;-0.580;2023-07-24T01:25:51;6.88;;;3.10;;
81656;SDS011;71067;51.482;-0.580;2023-07-24T01:28:19;3.75;;;2.33;;
81656;SDS011;71067;51.482;-0.580;2023-07-24T01:30:44;6.73;;;2.20;;
81656;SDS011;71067;51.482;-0.580;2023-07-24T01:33:09;7.60;;;2.42;;
81656;SDS011;71067;51.482;-0.580;2023-07-24T01:35:35;4.22;;;2.17;;
81656;SDS011;71067;51.482;-0.580;2023-07-24T01:38:02;5.82;;;2.50;;
81656;SDS011;71067;51.482;-0.580;2023-07-24T01:40:28;8.77;;;3.05;;
81656;SDS011;71067;51.482;-0.580;2023-07-24T01:42:54;6.68;;;2.40;;
81656;SDS011;71067;51.482;-0.580;2023-07-24T01:45:19;7.47;;;2.67;;
81656;SDS011;71067;51.482;-0.580;2023-07-24T01:47:45;6.40;;;2.43;;
81656;SDS011;71067;51.482;-0.580;2023-07-24T01:50:10;5.07;;;2.53;;
81656;SDS011;71067;51.482;-0.580;2023-07-24T01:52:35;4.65;;;2.15;;
81656;SDS011;71067;51.482;-0.580;2023-07-24T01:55:01;7.30;;;2.67;;
81656;SDS011;71067;51.482;-0.580;2023-07-24T01:57:26;7.00;;;2.42;;
81656;SDS011;71067;51.482;-0.580;2023-07-24T01:59:51;4.97;;;2.10;;
81656;SDS011;71067;51.482;-0.580;2023-07-24T02:02:17;6.38;;;2.70;;
81656;SDS011;71067;51.482;-0.580;2023-07-24T02:04:42;5.55;;;2.50;;
81656;SDS011;71067;51.482;-0.580;2023-07-24T02:07:07;6.65;;;2.45;;
81656;SDS011;71067;51.482;-0.580;2023-07-24T02:09:33;7.53;;;2.33;;
81656;SDS011;71067;51.482;-0.580;2023-07-24T02:11:58;4.57;;;2.13;;
81656;SDS011;71067;51.482;-0.580;2023-07-24T02:14:23;5.15;;;2.15;;
81656;SDS011;71067;51.482;-0.580;2023-07-24T02:16:49;4.43;;;2.30;;
81656;SDS011;71067;51.482;-0.580;2023-07-24T02:19:14;4.63;;;2.27;;
81656;SDS011;71067;51.482;-0.580;2023-07-24T02:21:39;6.10;;;2.47;;
81656;SDS011;71067;51.482;-0.580;2023-07-24T02:24:05;4.72;;;2.58;;
81656;SDS011;71067;51.482;-0.580;2023-07-24T02:26:31;5.15;;;2.35;;
81656;SDS011;71067;51.482;-0.580;2023-07-24T02:28:56;7.93;;;2.43;;
81656;SDS011;71067;51.482;-0.580;2023-07-24T02:31:21;5.63;;;2.38;;
81656;SDS011;71067;51.482;-0.580;2023-07-24T02:33:47;9.23;;;2.35;;
81656;SDS011;71067;51.482;-0.580;2023-07-24T02:36:12;7.15;;;2.40;;
81656;SDS011;71067;51.482;-0.580;2023-07-24T02:38:37;5.38;;;2.42;;
81656;SDS011;71067;51.482;-0.580;2023-07-24T02:41:03;5.82;;;2.42;;
81656;SDS011;71067;51.482;-0.580;2023-07-24T02:43:28;5.40;;;2.53;;
81656;SDS011;71067;51.482;-0.580;2023-07-24T02:45:53;6.07;;;2.37;;
81656;SDS011;71067;51.482;-0.580;2023-07-24T02:48:18;7.10;;;2.20;;
81656;SDS011;71067;51.482;-0.580;2023-07-24T02:50:44;4.75;;;2.20;;
81656;SDS011;71067;51.482;-0.580;2023-07-24T02:53:09;6.43;;;2.30;;
81656;SDS011;71067;51.482;-0.580;2023-07-24T02:55:35;4.70;;;2.20;;
81656;SDS011;71067;51.482;-0.580;2023-07-24T02:58:01;4.43;;;1.98;;
81656;SDS011;71067;51.482;-0.580;2023-07-24T03:00:27;7.30;;;2.08;;
81656;SDS011;71067;51.482;-0.580;2023-07-24T03:02:52;5.68;;;2.20;;
81656;SDS011;71067;51.482;-0.580;2023-07-24T03:05:17;6.75;;;2.20;;
81656;SDS011;71067;51.482;-0.580;2023-07-24T03:07:43;5.17;;;2.10;;
81656;SDS011;71067;51.482;-0.580;2023-07-24T03:10:08;5.53;;;2.22;;
81656;SDS011;71067;51.482;-0.580;2023-07-24T03:12:34;4.45;;;2.30;;
81656;SDS011;71067;51.482;-0.580;2023-07-24T03:14:59;7.90;;;2.70;;
81656;SDS011;71067;51.482;-0.580;2023-07-24T03:17:24;4.60;;;2.00;;
81656;SDS011;71067;51.482;-0.580;2023-07-24T03:19:50;5.25;;;2.28;;
81656;SDS011;71067;51.482;-0.580;2023-07-24T03:22:15;4.97;;;2.13;;
81656;SDS011;71067;51.482;-0.580;2023-07-24T03:24:40;5.57;;;2.57;;
81656;SDS011;71067;51.482;-0.580;2023-07-24T03:27:06;4.23;;;2.10;;
81656;SDS011;71067;51.482;-0.580;2023-07-24T03:29:31;4.13;;;2.00;;
81656;SDS011;71067;51.482;-0.580;2023-07-24T03:31:56;5.70;;;2.17;;
81656;SDS011;71067;51.482;-0.580;2023-07-24T03:34:22;7.47;;;1.92;;
81656;SDS011;71067;51.482;-0.580;2023-07-24T03:36:47;3.53;;;2.10;;
81656;SDS011;71067;51.482;-0.580;2023-07-24T03:39:12;5.43;;;1.97;;
81656;SDS011;71067;51.482;-0.580;2023-07-24T03:41:38;4.90;;;2.25;;
81656;SDS011;71067;51.482;-0.580;2023-07-24T03:44:04;4.50;;;1.90;;
81656;SDS011;71067;51.482;-0.580;2023-07-24T03:46:29;5.05;;;2.20;;
81656;SDS011;71067;51.482;-0.580;2023-07-24T03:48:57;5.55;;;2.15;;
81656;SDS011;71067;51.482;-0.580;2023-07-24T03:51:22;4.90;;;1.80;;
81656;SDS011;71067;51.482;-0.580;2023-07-24T03:53:47;3.00;;;1.48;;
81656;SDS011;71067;51.482;-0.580;2023-07-24T03:56:13;3.10;;;1.67;;
81656;SDS011;71067;51.482;-0.580;2023-07-24T03:58:38;4.30;;;1.87;;
81656;SDS011;71067;51.482;-0.580;2023-07-24T04:01:06;3.58;;;1.90;;
81656;SDS011;71067;51.482;-0.580;2023-07-24T04:03:32;3.97;;;2.17;;
81656;SDS011;71067;51.482;-0.580;2023-07-24T04:05:58;4.37;;;1.90;;
81656;SDS011;71067;51.482;-0.580;2023-07-24T04:08:24;4.82;;;1.92;;
81656;SDS011;71067;51.482;-0.580;2023-07-24T04:10:49;4.63;;;1.93;;
81656;SDS011;71067;51.482;-0.580;2023-07-24T04:13:14;4.28;;;2.00;;
81656;SDS011;71067;51.482;-0.580;2023-07-24T04:15:39;4.43;;;1.90;;
81656;SDS011;71067;51.482;-0.580;2023-07-24T04:18:05;4.80;;;1.93;;
81656;SDS011;71067;51.482;-0.580;2023-07-24T04:20:30;2.90;;;1.73;;
81656;SDS011;71067;51.482;-0.580;2023-07-24T04:22:55;3.07;;;1.70;;
81656;SDS011;71067;51.482;-0.580;2023-07-24T04:25:21;4.93;;;1.90;;
81656;SDS011;71067;51.482;-0.580;2023-07-24T04:27:46;3.85;;;1.80;;
81656;SDS011;71067;51.482;-0.580;2023-07-24T04:30:12;4.80;;;1.67;;
81656;SDS011;71067;51.482;-0.580;2023-07-24T04:32:37;3.33;;;1.67;;
81656;SDS011;71067;51.482;-0.580;2023-07-24T04:35:02;3.92;;;1.63;;
81656;SDS011;71067;51.482;-0.580;2023-07-24T04:37:28;6.38;;;2.13;;
81656;SDS011;71067;51.482;-0.580;2023-07-24T04:39:53;3.23;;;1.70;;
81656;SDS011;71067;51.482;-0.580;2023-07-24T04:42:18;3.57;;;1.87;;
81656;SDS011;71067;51.482;-0.580;2023-07-24T04:44:44;4.60;;;1.97;;
81656;SDS011;71067;51.482;-0.580;2023-07-24T04:47:09;2.88;;;1.52;;
81656;SDS011;71067;51.482;-0.580;2023-07-24T04:49:34;3.65;;;2.00;;
81656;SDS011;71067;51.482;-0.580;2023-07-24T04:52:00;5.00;;;1.77;;
81656;SDS011;71067;51.482;-0.580;2023-07-24T04:54:25;4.00;;;1.90;;
81656;SDS011;71067;51.482;-0.580;2023-07-24T04:56:50;4.30;;;2.20;;
81656;SDS011;71067;51.482;-0.580;2023-07-24T04:59:16;3.55;;;1.70;;
81656;SDS011;71067;51.482;-0.580;2023-07-24T05:01:41;4.80;;;2.05;;
81656;SDS011;71067;51.482;-0.580;2023-07-24T05:04:07;4.32;;;1.63;;
81656;SDS011;71067;51.482;-0.580;2023-07-24T05:06:32;3.10;;;1.40;;
81656;SDS011;71067;51.482;-0.580;2023-07-24T05:08:57;3.08;;;1.50;;
81656;SDS011;71067;51.482;-0.580;2023-07-24T05:11:23;4.35;;;1.88;;
81656;SDS011;71067;51.482;-0.580;2023-07-24T05:13:48;5.43;;;2.07;;
81656;SDS011;71067;51.482;-0.580;2023-07-24T05:16:13;3.65;;;1.73;;
81656;SDS011;71067;51.482;-0.580;2023-07-24T05:18:39;3.28;;;1.70;;
81656;SDS011;71067;51.482;-0.580;2023-07-24T05:21:04;4.50;;;1.80;;
81656;SDS011;71067;51.482;-0.580;2023-07-24T05:23:29;4.68;;;1.92;;
81656;SDS011;71067;51.482;-0.580;2023-07-24T05:26:01;3.33;;;1.97;;
81656;SDS011;71067;51.482;-0.580;2023-07-24T05:28:28;2.97;;;1.42;;
81656;SDS011;71067;51.482;-0.580;2023-07-24T05:30:54;2.35;;;1.83;;
81656;SDS011;71067;51.482;-0.580;2023-07-24T05:33:19;3.97;;;1.90;;
81656;SDS011;71067;51.482;-0.580;2023-07-24T05:35:45;4.72;;;1.77;;
81656;SDS011;71067;51.482;-0.580;2023-07-24T05:38:10;4.13;;;1.67;;
81656;SDS011;71067;51.482;-0.580;2023-07-24T05:40:35;3.47;;;1.80;;
81656;SDS011;71067;51.482;-0.580;2023-07-24T05:43:01;4.13;;;1.90;;
81656;SDS011;71067;51.482;-0.580;2023-07-24T05:45:26;3.83;;;1.60;;
81656;SDS011;71067;51.482;-0.580;2023-07-24T05:47:52;6.57;;;1.83;;
81656;SDS011;71067;51.482;-0.580;2023-07-24T05:50:18;5.43;;;1.95;;
81656;SDS011;71067;51.482;-0.580;2023-07-24T05:52:44;3.65;;;1.55;;
81656;SDS011;71067;51.482;-0.580;2023-07-24T05:55:09;3.53;;;1.75;;
81656;SDS011;71067;51.482;-0.580;2023-07-24T05:57:34;3.75;;;1.50;;
81656;SDS011;71067;51.482;-0.580;2023-07-24T06:00:00;3.53;;;1.85;;
81656;SDS011;71067;51.482;-0.580;2023-07-24T06:02:26;5.10;;;1.60;;
81656;SDS011;71067;51.482;-0.580;2023-07-24T06:04:51;5.07;;;1.77;;
81656;SDS011;71067;51.482;-0.580;2023-07-24T06:07:16;4.47;;;1.80;;
81656;SDS011;71067;51.482;-0.580;2023-07-24T06:09:42;5.80;;;1.80;;
81656;SDS011;71067;51.482;-0.580;2023-07-24T06:12:07;4.00;;;2.20;;
81656;SDS011;71067;51.482;-0.580;2023-07-24T06:14:32;5.05;;;2.03;;
81656;SDS011;71067;51.482;-0.580;2023-07-24T06:16:58;5.57;;;1.90;;
81656;SDS011;71067;51.482;-0.580;2023-07-24T06:19:23;3.15;;;1.58;;
81656;SDS011;71067;51.482;-0.580;2023-07-24T06:21:48;3.95;;;2.05;;
81656;SDS011;71067;51.482;-0.580;2023-07-24T06:24:13;3.47;;;2.00;;
81656;SDS011;71067;51.482;-0.580;2023-07-24T06:26:39;4.15;;;1.90;;
81656;SDS011;71067;51.482;-0.580;2023-07-24T06:29:04;3.58;;;1.92;;
81656;SDS011;71067;51.482;-0.580;2023-07-24T06:31:30;3.20;;;1.90;;
81656;SDS011;71067;51.482;-0.580;2023-07-24T06:33:55;5.38;;;1.73;;
81656;SDS011;71067;51.482;-0.580;2023-07-24T06:36:20;3.58;;;1.58;;
81656;SDS011;71067;51.482;-0.580;2023-07-24T06:38:46;4.35;;;1.70;;
81656;SDS011;71067;51.482;-0.580;2023-07-24T06:41:12;4.80;;;2.28;;
81656;SDS011;71067;51.482;-0.580;2023-07-24T06:43:40;3.78;;;2.15;;
81656;SDS011;71067;51.482;-0.580;2023-07-24T06:46:06;3.03;;;1.88;;
81656;SDS011;71067;51.482;-0.580;2023-07-24T06:48:31;4.78;;;1.80;;
81656;SDS011;71067;51.482;-0.580;2023-07-24T06:50:57;4.35;;;2.20;;
81656;SDS011;71067;51.482;-0.580;2023-07-24T06:53:22;4.28;;;2.40;;
81656;SDS011;71067;51.482;-0.580;2023-07-24T06:55:48;4.25;;;2.22;;
81656;SDS011;71067;51.482;-0.580;2023-07-24T06:58:13;4.78;;;2.45;;
81656;SDS011;71067;51.482;-0.580;2023-07-24T07:00:39;7.68;;;2.60;;
81656;SDS011;71067;51.482;-0.580;2023-07-24T07:03:06;4.93;;;2.55;;
81656;SDS011;71067;51.482;-0.580;2023-07-24T07:05:37;6.85;;;2.72;;
81656;SDS011;71067;51.482;-0.580;2023-07-24T07:08:02;4.28;;;2.67;;
81656;SDS011;71067;51.482;-0.580;2023-07-24T07:10:27;6.00;;;2.80;;
81656;SDS011;71067;51.482;-0.580;2023-07-24T07:12:53;7.07;;;2.78;;
81656;SDS011;71067;51.482;-0.580;2023-07-24T07:15:18;5.50;;;2.90;;
81656;SDS011;71067;51.482;-0.580;2023-07-24T07:17:43;5.30;;;3.03;;
81656;SDS011;71067;51.482;-0.580;2023-07-24T07:20:09;4.53;;;2.80;;
81656;SDS011;71067;51.482;-0.580;2023-07-24T07:22:34;7.50;;;3.22;;
81656;SDS011;71067;51.482;-0.580;2023-07-24T07:24:59;6.13;;;3.20;;
81656;SDS011;71067;51.482;-0.580;2023-07-24T07:27:25;4.88;;;3.28;;
81656;SDS011;71067;51.482;-0.580;2023-07-24T07:29:50;5.57;;;2.83;;
81656;SDS011;71067;51.482;-0.580;2023-07-24T07:32:15;5.57;;;3.50;;
81656;SDS011;71067;51.482;-0.580;2023-07-24T07:34:41;6.95;;;3.38;;
81656;SDS011;71067;51.482;-0.580;2023-07-24T07:37:07;6.03;;;3.08;;
81656;SDS011;71067;51.482;-0.580;2023-07-24T07:39:32;4.10;;;2.90;;
81656;SDS011;71067;51.482;-0.580;2023-07-24T07:41:58;5.68;;;3.15;;
81656;SDS011;71067;51.482;-0.580;2023-07-24T07:44:23;5.70;;;2.90;;
81656;SDS011;71067;51.482;-0.580;2023-07-24T07:46:48;4.47;;;2.90;;
81656;SDS011;71067;51.482;-0.580;2023-07-24T07:49:14;5.75;;;3.05;;
81656;SDS011;71067;51.482;-0.580;2023-07-24T07:51:39;2.57;;;1.73;;
81656;SDS011;71067;51.482;-0.580;2023-07-24T07:54:04;2.33;;;1.10;;
81656;SDS011;71067;51.482;-0.580;2023-07-24T07:56:29;3.37;;;1.97;;
81656;SDS011;71067;51.482;-0.580;2023-07-24T07:58:55;4.10;;;2.20;;
81656;SDS011;71067;51.482;-0.580;2023-07-24T08:01:20;3.93;;;2.20;;
81656;SDS011;71067;51.482;-0.580;2023-07-24T08:03:45;3.90;;;2.87;;
81656;SDS011;71067;51.482;-0.580;2023-07-24T08:06:11;4.13;;;3.00;;
81656;SDS011;71067;51.482;-0.580;2023-07-24T08:08:37;3.03;;;2.33;;
81656;SDS011;71067;51.482;-0.580;2023-07-24T08:11:05;2.07;;;1.50;;
81656;SDS011;71067;51.482;-0.580;2023-07-24T08:13:31;2.55;;;1.52;;
81656;SDS011;71067;51.482;-0.580;2023-07-24T08:15:57;2.67;;;1.20;;
81656;SDS011;71067;51.482;-0.580;2023-07-24T08:18:22;2.28;;;1.10;;
81656;SDS011;71067;51.482;-0.580;2023-07-24T08:20:47;3.07;;;1.27;;
81656;SDS011;71067;51.482;-0.580;2023-07-24T08:23:13;3.07;;;1.47;;
81656;SDS011;71067;51.482;-0.580;2023-07-24T08:25:38;4.03;;;2.90;;
81656;SDS011;71067;51.482;-0.580;2023-07-24T08:28:03;3.97;;;2.60;;
81656;SDS011;71067;51.482;-0.580;2023-07-24T08:30:29;4.03;;;2.30;;
81656;SDS011;71067;51.482;-0.580;2023-07-24T08:32:56;2.03;;;1.00;;
81656;SDS011;71067;51.482;-0.580;2023-07-24T08:35:22;2.28;;;0.88;;
81656;SDS011;71067;51.482;-0.580;2023-07-24T08:37:48;1.25;;;0.60;;
81656;SDS011;71067;51.482;-0.580;2023-07-24T08:40:13;1.70;;;0.67;;
81656;SDS011;71067;51.482;-0.580;2023-07-24T08:42:42;1.88;;;0.85;;
81656;SDS011;71067;51.482;-0.580;2023-07-24T08:45:11;1.20;;;0.70;;
81656;SDS011;71067;51.482;-0.580;2023-07-24T08:47:39;1.30;;;0.70;;
81656;SDS011;71067;51.482;-0.580;2023-07-24T08:50:09;1.63;;;0.57;;
81656;SDS011;71067;51.482;-0.580;2023-07-24T08:52:36;1.80;;;0.63;;
81656;SDS011;71067;51.482;-0.580;2023-07-24T08:55:02;1.20;;;0.60;;
81656;SDS011;71067;51.482;-0.580;2023-07-24T08:57:30;1.10;;;0.40;;
81656;SDS011;71067;51.482;-0.580;2023-07-24T08:59:55;0.95;;;0.30;;
81656;SDS011;71067;51.482;-0.580;2023-07-24T09:02:20;0.85;;;0.20;;
81656;SDS011;71067;51.482;-0.580;2023-07-24T09:04:45;0.90;;;0.27;;
81656;SDS011;71067;51.482;-0.580;2023-07-24T09:07:11;0.70;;;0.30;;
81656;SDS011;71067;51.482;-0.580;2023-07-24T09:09:36;1.73;;;0.45;;
81656;SDS011;71067;51.482;-0.580;2023-07-24T09:12:02;2.07;;;0.50;;
81656;SDS011;71067;51.482;-0.580;2023-07-24T09:14:28;1.92;;;0.40;;
81656;SDS011;71067;51.482;-0.580;2023-07-24T09:17:06;0.77;;;0.40;;
81656;SDS011;71067;51.482;-0.580;2023-07-24T09:19:33;1.48;;;0.40;;
81656;SDS011;71067;51.482;-0.580;2023-07-24T09:22:12;0.90;;;0.43;;
81656;SDS011;71067;51.482;-0.580;2023-07-24T09:24:52;1.02;;;0.38;;
81656;SDS011;71067;51.482;-0.580;2023-07-24T09:27:18;1.05;;;0.40;;
81656;SDS011;71067;51.482;-0.580;2023-07-24T09:29:44;0.70;;;0.30;;
81656;SDS011;71067;51.482;-0.580;2023-07-24T09:32:23;0.85;;;0.30;;
81656;SDS011;71067;51.482;-0.580;2023-07-24T09:34:49;1.27;;;0.30;;
81656;SDS011;71067;51.482;-0.580;2023-07-24T09:37:22;1.15;;;0.40;;
81656;SDS011;71067;51.482;-0.580;2023-07-24T09:39:51;0.88;;;0.30;;
81656;SDS011;71067;51.482;-0.580;2023-07-24T09:42:17;6.93;;;1.17;;
81656;SDS011;71067;51.482;-0.580;2023-07-24T09:44:42;1.05;;;0.40;;
81656;SDS011;71067;51.482;-0.580;2023-07-24T09:47:07;1.17;;;0.30;;
81656;SDS011;71067;51.482;-0.580;2023-07-24T09:49:32;1.70;;;0.40;;
81656;SDS011;71067;51.482;-0.580;2023-07-24T09:51:58;1.33;;;0.40;;
81656;SDS011;71067;51.482;-0.580;2023-07-24T09:54:29;0.90;;;0.30;;
81656;SDS011;71067;51.482;-0.580;2023-07-24T09:56:58;1.17;;;0.30;;
81656;SDS011;71067;51.482;-0.580;2023-07-24T09:59:25;1.00;;;0.32;;
81656;SDS011;71067;51.482;-0.580;2023-07-24T10:01:52;0.80;;;0.40;;
81656;SDS011;71067;51.482;-0.580;2023-07-24T10:04:18;1.27;;;0.50;;
81656;SDS011;71067;51.482;-0.580;2023-07-24T10:06:44;2.95;;;0.70;;
81656;SDS011;71067;51.482;-0.580;2023-07-24T10:09:10;1.20;;;0.70;;
81656;SDS011;71067;51.482;-0.580;2023-07-24T10:11:36;1.00;;;0.50;;
81656;SDS011;71067;51.482;-0.580;2023-07-24T10:14:01;1.20;;;0.67;;
81656;SDS011;71067;51.482;-0.580;2023-07-24T10:16:27;1.27;;;0.60;;
81656;SDS011;71067;51.482;-0.580;2023-07-24T10:18:53;1.00;;;0.60;;
81656;SDS011;71067;51.482;-0.580;2023-07-24T10:21:18;1.10;;;0.60;;
81656;SDS011;71067;51.482;-0.580;2023-07-24T10:23:51;1.10;;;0.70;;
81656;SDS011;71067;51.482;-0.580;2023-07-24T10:26:23;1.73;;;0.50;;
81656;SDS011;71067;51.482;-0.580;2023-07-24T10:28:50;2.15;;;0.60;;
81656;SDS011;71067;51.482;-0.580;2023-07-24T10:31:19;2.15;;;0.60;;
81656;SDS011;71067;51.482;-0.580;2023-07-24T10:33:51;1.27;;;0.63;;
81656;SDS011;71067;51.482;-0.580;2023-07-24T10:36:20;2.17;;;0.60;;
81656;SDS011;71067;51.482;-0.580;2023-07-24T10:38:51;1.95;;;0.60;;
81656;SDS011;71067;51.482;-0.580;2023-07-24T10:41:18;1.27;;;0.60;;
81656;SDS011;71067;51.482;-0.580;2023-07-24T10:43:44;1.27;;;0.47;;
81656;SDS011;71067;51.482;-0.580;2023-07-24T10:46:11;1.85;;;0.50;;
81656;SDS011;71067;51.482;-0.580;2023-07-24T10:48:37;1.40;;;0.60;;
81656;SDS011;71067;51.482;-0.580;2023-07-24T10:51:07;2.70;;;0.65;;
81656;SDS011;71067;51.482;-0.580;2023-07-24T10:53:34;1.15;;;0.50;;
81656;SDS011;71067;51.482;-0.580;2023-07-24T10:56:02;0.90;;;0.52;;
81656;SDS011;71067;51.482;-0.580;2023-07-24T10:58:27;3.85;;;0.60;;
81656;SDS011;71067;51.482;-0.580;2023-07-24T11:00:52;1.55;;;0.60;;
81656;SDS011;71067;51.482;-0.580;2023-07-24T11:03:18;3.50;;;0.90;;
81656;SDS011;71067;51.482;-0.580;2023-07-24T11:05:44;3.35;;;0.73;;
81656;SDS011;71067;51.482;-0.580;2023-07-24T11:08:11;1.77;;;0.70;;
81656;SDS011;71067;51.482;-0.580;2023-07-24T11:10:47;1.92;;;0.80;;
81656;SDS011;71067;51.482;-0.580;2023-07-24T11:13:17;1.88;;;0.90;;
81656;SDS011;71067;51.482;-0.580;2023-07-24T11:15:43;2.22;;;0.77;;
81656;SDS011;71067;51.482;-0.580;2023-07-24T11:18:09;2.00;;;0.98;;
81656;SDS011;71067;51.482;-0.580;2023-07-24T11:20:45;1.75;;;0.80;;
81656;SDS011;71067;51.482;-0.580;2023-07-24T11:23:20;1.75;;;0.63;;
81656;SDS011;71067;51.482;-0.580;2023-07-24T11:25:46;1.63;;;0.80;;
81656;SDS011;71067;51.482;-0.580;2023-07-24T11:28:12;2.20;;;0.90;;
81656;SDS011;71067;51.482;-0.580;2023-07-24T11:30:39;1.98;;;1.15;;
81656;SDS011;71067;51.482;-0.580;2023-07-24T11:33:05;3.13;;;1.20;;
81656;SDS011;71067;51.482;-0.580;2023-07-24T11:35:32;2.25;;;1.10;;
81656;SDS011;71067;51.482;-0.580;2023-07-24T11:37:59;1.77;;;1.13;;
81656;SDS011;71067;51.482;-0.580;2023-07-24T11:40:35;1.63;;;1.10;;
81656;SDS011;71067;51.482;-0.580;2023-07-24T11:43:01;1.95;;;1.10;;
81656;SDS011;71067;51.482;-0.580;2023-07-24T11:45:27;2.30;;;1.30;;
81656;SDS011;71067;51.482;-0.580;2023-07-24T11:47:53;1.80;;;1.17;;
81656;SDS011;71067;51.482;-0.580;2023-07-24T11:50:19;1.92;;;1.10;;
81656;SDS011;71067;51.482;-0.580;2023-07-24T11:52:50;2.08;;;1.15;;
81656;SDS011;71067;51.482;-0.580;2023-07-24T11:55:17;2.00;;;1.20;;
81656;SDS011;71067;51.482;-0.580;2023-07-24T11:57:57;2.88;;;0.93;;
81656;SDS011;71067;51.482;-0.580;2023-07-24T12:00:26;1.80;;;1.20;;
81656;SDS011;71067;51.482;-0.580;2023-07-24T12:02:52;1.95;;;1.02;;
81656;SDS011;71067;51.482;-0.580;2023-07-24T12:05:18;2.47;;;0.80;;
81656;SDS011;71067;51.482;-0.580;2023-07-24T12:07:43;2.38;;;0.85;;
81656;SDS011;71067;51.482;-0.580;2023-07-24T12:10:13;1.50;;;0.70;;
81656;SDS011;71067;51.482;-0.580;2023-07-24T12:12:50;3.17;;;0.93;;
81656;SDS011;71067;51.482;-0.580;2023-07-24T12:15:16;1.60;;;0.67;;
81656;SDS011;71067;51.482;-0.580;2023-07-24T12:17:41;2.08;;;1.00;;
81656;SDS011;71067;51.482;-0.580;2023-07-24T12:20:07;2.70;;;0.80;;
81656;SDS011;71067;51.482;-0.580;2023-07-24T12:22:37;2.42;;;0.98;;
81656;SDS011;71067;51.482;-0.580;2023-07-24T12:25:03;1.60;;;0.80;;
81656;SDS011;71067;51.482;-0.580;2023-07-24T12:27:29;2.78;;;0.90;;
81656;SDS011;71067;51.482;-0.580;2023-07-24T12:29:54;1.80;;;1.00;;
81656;SDS011;71067;51.482;-0.580;2023-07-24T12:32:20;1.50;;;0.75;;
81656;SDS011;71067;51.482;-0.580;2023-07-24T12:34:47;2.72;;;0.85;;
81656;SDS011;71067;51.482;-0.580;2023-07-24T12:37:13;1.95;;;0.77;;
81656;SDS011;71067;51.482;-0.580;2023-07-24T12:39:38;3.28;;;1.40;;
81656;SDS011;71067;51.482;-0.580;2023-07-24T12:42:04;3.40;;;1.30;;
81656;SDS011;71067;51.482;-0.580;2023-07-24T12:44:30;3.17;;;1.20;;
81656;SDS011;71067;51.482;-0.580;2023-07-24T12:46:55;2.85;;;1.00;;
81656;SDS011;71067;51.482;-0.580;2023-07-24T12:49:21;3.28;;;0.93;;
81656;SDS011;71067;51.482;-0.580;2023-07-24T12:51:46;2.25;;;1.08;;
81656;SDS011;71067;51.482;-0.580;2023-07-24T12:54:11;1.60;;;0.80;;
81656;SDS011;71067;51.482;-0.580;2023-07-24T12:56:37;2.50;;;1.02;;
81656;SDS011;71067;51.482;-0.580;2023-07-24T12:59:02;4.53;;;1.25;;
81656;SDS011;71067;51.482;-0.580;2023-07-24T13:01:28;2.75;;;1.10;;
81656;SDS011;71067;51.482;-0.580;2023-07-24T13:03:54;2.47;;;1.23;;
81656;SDS011;71067;51.482;-0.580;2023-07-24T13:06:20;2.80;;;1.60;;
81656;SDS011;71067;51.482;-0.580;2023-07-24T13:08:45;1.98;;;1.17;;
81656;SDS011;71067;51.482;-0.580;2023-07-24T13:11:11;5.07;;;1.48;;
81656;SDS011;71067;51.482;-0.580;2023-07-24T13:13:36;3.38;;;1.55;;
81656;SDS011;71067;51.482;-0.580;2023-07-24T13:16:02;4.28;;;1.55;;
81656;SDS011;71067;51.482;-0.580;2023-07-24T13:18:28;3.17;;;1.60;;
81656;SDS011;71067;51.482;-0.580;2023-07-24T13:20:54;2.63;;;1.38;;
81656;SDS011;71067;51.482;-0.580;2023-07-24T13:23:19;5.28;;;1.48;;
81656;SDS011;71067;51.482;-0.580;2023-07-24T13:25:44;3.63;;;1.60;;
81656;SDS011;71067;51.482;-0.580;2023-07-24T13:28:10;3.95;;;1.58;;
81656;SDS011;71067;51.482;-0.580;2023-07-24T13:30:35;3.57;;;1.60;;
81656;SDS011;71067;51.482;-0.580;2023-07-24T13:33:00;2.67;;;1.47;;
81656;SDS011;71067;51.482;-0.580;2023-07-24T13:35:26;3.80;;;1.85;;
81656;SDS011;71067;51.482;-0.580;2023-07-24T13:37:51;2.37;;;1.33;;
81656;SDS011;71067;51.482;-0.580;2023-07-24T13:40:16;4.88;;;1.50;;
81656;SDS011;71067;51.482;-0.580;2023-07-24T13:42:42;3.93;;;1.80;;
81656;SDS011;71067;51.482;-0.580;2023-07-24T13:45:07;3.77;;;1.50;;
81656;SDS011;71067;51.482;-0.580;2023-07-24T13:47:33;5.07;;;2.13;;
81656;SDS011;71067;51.482;-0.580;2023-07-24T13:49:58;5.07;;;1.80;;
81656;SDS011;71067;51.482;-0.580;2023-07-24T13:52:25;4.00;;;1.50;;
81656;SDS011;71067;51.482;-0.580;2023-07-24T13:54:50;5.00;;;1.70;;
81656;SDS011;71067;51.482;-0.580;2023-07-24T13:57:15;3.10;;;1.43;;
81656;SDS011;71067;51.482;-0.580;2023-07-24T13:59:40;5.27;;;1.60;;
81656;SDS011;71067;51.482;-0.580;2023-07-24T14:02:06;3.77;;;1.67;;
81656;SDS011;71067;51.482;-0.580;2023-07-24T14:04:31;3.60;;;1.55;;
81656;SDS011;71067;51.482;-0.580;2023-07-24T14:06:56;4.05;;;1.70;;
81656;SDS011;71067;51.482;-0.580;2023-07-24T14:09:22;3.27;;;1.40;;
81656;SDS011;71067;51.482;-0.580;2023-07-24T14:11:47;3.33;;;1.60;;
81656;SDS011;71067;51.482;-0.580;2023-07-24T14:14:12;4.88;;;1.73;;
81656;SDS011;71067;51.482;-0.580;2023-07-24T14:16:38;3.83;;;1.60;;
81656;SDS011;71067;51.482;-0.580;2023-07-24T14:19:03;5.13;;;1.92;;
81656;SDS011;71067;51.482;-0.580;2023-07-24T14:21:28;2.40;;;1.40;;
81656;SDS011;71067;51.482;-0.580;2023-07-24T14:23:54;3.90;;;1.93;;
81656;SDS011;71067;51.482;-0.580;2023-07-24T14:26:19;4.60;;;2.10;;
81656;SDS011;71067;51.482;-0.580;2023-07-24T14:28:44;5.20;;;1.88;;